Flight Track Log - Related Links

Times and Time Zones

All times are in EDT time to prevent confusion due to time zone crossing. See the GJS3649 flight status page for this flight to view local times or setup timezone preferences in your user account.

Time Position Orientation Groundspeed Altitude Reporting Facility
EDT Latitude Longitude Course Direction KTS MPH feet Rate Location/Type
Wed 08:34:42 PM 41.9519 -72.6689 338° Northwest 158 182 900  Level Boston Center
Wed 08:35:49 PM 41.9856 -72.6106 52° Northeast 204 235 2,900 2,047 Climbing Boston Center
Wed 08:36:51 PM 42.0458 -72.6386 341° North 230 265 5,300 2,213 Climbing Boston Center
Wed 08:37:00 PM 42.3368 -72.9745 334° Northwest  Level FlightAware Approximate
Wed 08:37:51 PM 42.0978 -72.7086 315° West 264 304 7,400  Level Boston Center
Wed 08:38:00 PM 42.4818 -73.0491 340° North  Level FlightAware Approximate
Wed 08:38:51 PM 42.1664 -72.7931 318° Northwest 298 343 10,600  Level Boston Center
Wed 08:39:00 PM 42.6255 -73.1281 334° Northwest  Level FlightAware Approximate
Wed 08:39:51 PM 42.2244 -72.8633 318° Northwest 306 352 12,800  Level Boston Center
Wed 08:40:00 PM 42.7677 -73.2120 338° Northwest  Level FlightAware Approximate
Wed 08:40:51 PM 42.3014 -72.9508 320° Northwest 327 376 15,400  Level Boston Center
Wed 08:41:51 PM 42.3906 -73.0050 336° Northwest 333 383 17,800 1,750 Climbing Boston Center
Wed 08:42:51 PM 42.4736 -73.0733 329° Northwest 346 398 18,900 1,000 Climbing Boston Center
Wed 08:43:51 PM 42.5125 -73.2061 292° West 347 399 19,800 550 Climbing Boston Center
Wed 08:44:51 PM 42.5447 -73.3531 287° West 374 430 20,000 400 Climbing Boston Center
Wed 08:45:51 PM 42.5853 -73.4947 291° West 417 480 20,600 1,150 Climbing Boston Center
Wed 08:46:51 PM 42.6464 -73.6342 301° West 423 487 22,300 1,550 Climbing Boston Center
Wed 08:47:51 PM 42.6864 -73.7872 290° West 428 493 23,700 1,600 Climbing Boston Center
Wed 08:48:51 PM 42.7197 -73.9436 286° West 433 498 25,500 1,800 Climbing Boston Center
Wed 08:49:51 PM 42.7550 -74.1000 287° West 433 498 27,300 1,300 Climbing Boston Center
Wed 08:50:51 PM 42.7858 -74.2619 285° West 438 504 28,100 800 Climbing Boston Center
Wed 08:51:51 PM 42.8122 -74.4297 282° West 443 510 28,900 800 Climbing Boston Center
Wed 08:52:51 PM 42.8153 -74.6083 271° West 459 528 29,700 550 Climbing Boston Center
Wed 08:53:51 PM 42.8181 -74.7867 271° West 472 543 30,000 150 Climbing Boston Center
Wed 08:54:51 PM 42.8203 -74.9736 271° West 487 560 30,000  Level Boston Center
Wed 08:55:51 PM 42.8222 -75.1578 271° West 493 567 30,000  Level Boston Center
Wed 08:56:51 PM 42.8281 -75.3447 272° West 498 573 30,000  Level Boston Center
Wed 08:57:51 PM 42.8289 -75.5489 270° West 498 573 30,000  Level Boston Center
Wed 08:59:43 PM 42.6839 -75.7708 228° Southwest 446 513 30,000  Level New York Center
Wed 09:00:40 PM 42.5914 -75.8903 224° Southwest 457 526 30,000 -50 Level New York Center
Wed 09:01:43 PM 42.4989 -76.0097 224° Southwest 462 532 29,900 -545 Descending New York Center
Wed 09:02:41 PM 42.4019 -76.1311 223° Southwest 468 539 28,900 -966 Descending New York Center
Wed 09:03:41 PM 42.3089 -76.2525 224° Southwest 468 539 28,000 -446 Descending New York Center
Wed 09:04:42 PM 42.2158 -76.3736 224° Southwest 473 544 28,000 -149 Level New York Center
Wed 09:05:42 PM 42.1206 -76.4939 223° Southwest 473 544 27,700 -661 Descending New York Center
Wed 09:06:40 PM 42.0253 -76.6169 224° Southwest 478 550 26,700 -1,169 Descending New York Center
Wed 09:07:40 PM 41.9186 -76.7497 223° Southwest 478 550 25,400 -1,339 Descending New York Center
Wed 09:08:41 PM 41.8383 -76.8539 224° Southwest 472 543 24,000 -700 Descending New York Center
Wed 09:09:40 PM 41.7447 -76.9733 224° Southwest 449 517 24,000  Level New York Center
Wed 09:10:41 PM 41.6578 -77.0817 223° Southwest 438 504 24,000  Level New York Center
Wed 09:11:41 PM 41.5708 -77.1872 222° Southwest 433 498 24,000  Level New York Center
Wed 09:12:42 PM 41.4694 -77.2525 206° Southwest 415 478 24,000  Level New York Center
Wed 09:13:43 PM 41.3533 -77.2411 176° South 399 459 24,000 -202 Level New York Center
Wed 09:14:41 PM 41.2325 -77.2408 180° South 416 479 23,600 -1,271 Descending New York Center
Wed 09:15:41 PM 41.1222 -77.2411 180° South 423 487 21,500 -1,700 Descending New York Center
Wed 09:16:41 PM 41.0136 -77.2419 180° South 417 480 20,200 -1,140 Descending New York Center
Wed 09:17:42 PM 40.9119 -77.2378 178° South 390 449 19,200 -992 Descending New York Center
Wed 09:18:42 PM 40.8056 -77.2386 180° South 384 442 18,200 -595 Descending New York Center
Wed 09:19:43 PM 40.7014 -77.2369 179° South 384 442 18,000 -99 Descending New York Center
Wed 09:20:43 PM 40.6097 -77.2367 180° South 377 434 18,000  Level New York Center
Wed 09:21:41 PM 40.4994 -77.2344 179° South 377 434 18,000 -150 Level New York Center
Wed 09:22:43 PM 40.4056 -77.2339 180° South 372 428 17,700 -590 Descending New York Center
Wed 09:23:43 PM 40.2931 -77.2342 180° South 372 428 16,800 -814 Descending New York Center
Wed 09:24:41 PM 40.1994 -77.2308 178° South 367 422 16,100 -814 Descending New York Center
Wed 09:25:41 PM 40.0847 -77.2311 180° South 379 436 15,200 -982 Descending New York Center
Wed 09:27:26 PM 39.9167 -77.2333 181° South 378 435 13,400 -982 Descending Potomac TRACON
Wed 09:28:26 PM 39.8167 -77.2333 180° South 360 414 12,500 -1,100 Descending Potomac TRACON
Wed 09:29:26 PM 39.7333 -77.2833 205° Southwest 310 357 11,200 -1,200 Descending Potomac TRACON
Wed 09:30:26 PM 39.6667 -77.3167 201° Southwest 280 322 10,100 -600 Descending Potomac TRACON
Wed 09:31:26 PM 39.6000 -77.3667 210° Southwest 270 311 10,000 -500 Descending Potomac TRACON
Wed 09:32:26 PM 39.5167 -77.4167 205° Southwest 278 320 9,100 -857 Descending Potomac TRACON
Wed 09:33:32 PM 39.4333 -77.4500 197° South 280 322 8,200 -1,048 Descending Potomac TRACON
Wed 09:34:32 PM 39.3667 -77.4500 180° South 270 311 6,900 -1,250 Descending Potomac TRACON
Wed 09:35:32 PM 39.2833 -77.4500 180° South 268 308 5,700 -1,200 Descending Potomac TRACON
Wed 09:36:32 PM 39.2167 -77.4500 180° South 268 308 4,500 -1,048 Descending Potomac TRACON
Wed 09:37:38 PM 39.1333 -77.4500 180° South 249 287 3,500 -952 Descending Potomac TRACON
Wed 09:38:38 PM 39.0833 -77.4500 180° South 205 236 2,500 -1,000 Descending Potomac TRACON
Wed 09:39:38 PM 39.0333 -77.4667 195° South 179 206 1,500 -850 Descending Potomac TRACON
Wed 09:40:38 PM 38.9833 -77.4667 180° South 130 150 800 -700 Descending Potomac TRACON

Login

Don't have an account? Register now (free) for customized features, flight alerts, and more!